Goodwin, Arkansas
Current Conditions -  °F | °C
As of 2:15 PM on Monday 24 Nov 2014 (Local Time) from KSGT Reporting Station
Clear Clear  
Wind Chill: 59°   Ceiling: Unl
Heat Index: 59°   Visibility: 10mi
Dew Point: 30°   Wind: 17mph
Humidity: 34%   Direction: 290°WNW
Pressure: 29.92"   Gusts: 22mph
Location:  34.94°N, 91.02°W
Report Text: KSGT 242015Z AUTO 29015G19KT 10SM CLR 15/M01 A2992 RMK AO1
Loading
Personal Weather Stations






























Interactive Weather Map New forecast layout! Learn more

10-Day Weather Forecast

Advertisements
Track Severe Weather on mobile